< < Back
Terminal Aerodrome Forecast


Current Version              Previous Versions:   1  2  3  4  5  6  7  8  9  

Terminal Aerodrome Forecast

518
FTUS44 KHUN 260520
TAFHSV
TAF
KHSV 260520Z 2606/2706 14005KT P6SM SCT100
     FM261600 24005KT P6SM SCT080
     FM262000 30010KT P6SM VCTS BKN050CB
     FM270000 36005KT P6SM BKN120=

Latest METAR

557
SAUS80 KWBC 270800 RRA
MTRHSV
METAR KHSV 270753Z AUTO 36008KT 10SM CLR 19/15 A3002 RMK AO2 SLP156
T01890150


USA.gov is the U.S. government's official web portal to all federal, state and local government web resources and services.